Flight Track Log - Related Links

Times and Time Zones

All times are in EDT time to prevent confusion due to time zone crossing. See the CPT7563 flight status page for this flight to view local times or setup timezone preferences in your user account.

Time Position Orientation Groundspeed Altitude Reporting Facility
EDT Latitude Longitude Course Direction KTS MPH feet Rate Location/Type
Fri 07:30:28 PM 48.2439 -101.0381 98° East 128 147 7,500  Level Minneapolis Center
Fri 07:31:00 PM 48.2333 -100.8578 90° East  Level FlightAware Approximate
Fri 07:31:30 PM 48.2417 -100.9797 93° East 138 159 8,500  Level Minneapolis Center
Fri 07:32:00 PM 48.2317 -100.7993 98° East  Level FlightAware Approximate
Fri 07:32:32 PM 48.2367 -100.8986 95° East 150 173 8,900  Level Minneapolis Center
Fri 07:33:00 PM 48.2262 -100.7412 98° East  Level FlightAware Approximate
Fri 07:33:34 PM 48.2331 -100.8208 94° East 170 196 8,900  Level Minneapolis Center
Fri 07:34:00 PM 48.2207 -100.6831 98° East  Level FlightAware Approximate
Fri 07:34:36 PM 48.2297 -100.7450 94° East 178 205 8,900  Level Minneapolis Center
Fri 07:35:00 PM 48.2152 -100.6250 98° East  Level FlightAware Approximate
Fri 07:35:38 PM 48.2261 -100.6697 94° East 180 207 8,900  Level Minneapolis Center
Fri 07:36:40 PM 48.2222 -100.5950 94° East 181 208 8,900  Level Minneapolis Center
Fri 07:37:42 PM 48.2169 -100.5039 95° East 182 209 8,900  Level Minneapolis Center
Fri 07:38:45 PM 48.2119 -100.4283 96° East 182 209 8,900  Level Minneapolis Center
Fri 07:39:47 PM 48.2081 -100.3533 94° East 182 209 8,900  Level Minneapolis Center
Fri 07:40:49 PM 48.2036 -100.2778 95° East 182 209 8,900  Level Minneapolis Center
Fri 07:41:51 PM 48.1997 -100.2011 94° East 183 211 8,900  Level Minneapolis Center
Fri 07:42:53 PM 48.1950 -100.1256 95° East 183 211 8,900  Level Minneapolis Center
Fri 07:43:55 PM 48.1889 -100.0344 96° East 184 212 8,900  Level Minneapolis Center
Fri 07:44:57 PM 48.1842 -99.9564 95° East 185 213 8,900  Level Minneapolis Center
Fri 07:45:59 PM 48.1789 -99.8803 96° East 185 213 8,900  Level Minneapolis Center
Fri 07:47:01 PM 48.1750 -99.8028 94° East 186 214 8,900 48 Level Minneapolis Center
Fri 07:48:03 PM 48.1686 -99.7278 97° East 184 212 9,000 48 Climbing Minneapolis Center
Fri 07:49:05 PM 48.1650 -99.6497 94° East 186 214 9,000  Level Minneapolis Center
Fri 07:50:07 PM 48.1589 -99.5561 96° East 187 215 9,000  Level Minneapolis Center
Fri 07:51:09 PM 48.1544 -99.4786 95° East 188 216 9,000  Level Minneapolis Center
Fri 07:52:11 PM 48.1486 -99.4019 96° East 187 215 9,000  Level Minneapolis Center
Fri 07:53:13 PM 48.1433 -99.3242 96° East 188 216 9,000  Level Minneapolis Center
Fri 07:54:15 PM 48.1386 -99.2469 95° East 188 216 9,000  Level Minneapolis Center
Fri 07:55:17 PM 48.1336 -99.1703 96° East 186 214 9,000  Level Minneapolis Center
Fri 07:56:19 PM 48.1281 -99.0919 96° East 187 215 9,000  Level Minneapolis Center
Fri 07:57:21 PM 48.1206 -98.9994 97° East 187 215 9,000  Level Minneapolis Center
Fri 07:58:22 PM 48.1147 -98.9217 96° East 188 216 9,000  Level Minneapolis Center
Fri 07:59:24 PM 48.1097 -98.8458 96° East 187 215 9,000  Level Minneapolis Center
Fri 08:00:26 PM 48.1022 -98.7683 98° East 187 215 9,000  Level Minneapolis Center
Fri 08:01:28 PM 48.0947 -98.6931 98° East 186 214 9,000  Level Minneapolis Center
Fri 08:02:30 PM 48.0886 -98.6169 97° East 185 213 9,000  Level Minneapolis Center
Fri 08:03:32 PM 48.0794 -98.5261 99° East 185 213 9,000  Level Minneapolis Center
Fri 08:04:34 PM 48.0722 -98.4508 98° East 184 212 9,000  Level Minneapolis Center
Fri 08:05:36 PM 48.0647 -98.3750 98° East 184 212 9,000  Level Minneapolis Center
Fri 08:05:51 PM 48.0639 -98.3528 93° East 184 212 9,000  Level Minneapolis Center
Fri 08:06:38 PM 48.0578 -98.2997 100° East 184 212 9,000  Level Minneapolis Center
Fri 08:07:40 PM 48.0511 -98.2233 97° East 184 212 9,000 -89 Level Minneapolis Center
Fri 08:08:53 PM 48.0431 -98.1219 97° East 182 209 8,800 -242 Descending Minneapolis Center
Fri 08:09:44 PM 48.0378 -98.0886 103° East 183 211 8,500 -584 Descending Minneapolis Center
Fri 08:10:46 PM 48.0289 -97.9828 97° East 183 211 7,700 -629 Descending Minneapolis Center
Fri 08:11:48 PM 48.0289 -97.9072 90° East 183 211 7,200 -532 Descending Minneapolis Center
Fri 08:12:50 PM 48.0328 -97.8319 86° East 182 209 6,600 -532 Descending Minneapolis Center
Fri 08:13:52 PM 48.0361 -97.7578 86° East 181 208 6,100 -480 Descending Minneapolis Center
Fri 08:14:55 PM 48.0383 -97.6825 87° East 181 208 5,600 -484 Descending Minneapolis Center
Fri 08:15:56 PM 48.0417 -97.6083 86° East 180 207 5,100 -532 Descending Minneapolis Center
Fri 08:16:59 PM 48.0472 -97.5203 85° East 179 206 4,500 -532 Descending Minneapolis Center
Fri 08:18:00 PM 48.0522 -97.4481 84° East 177 204 4,000 -390 Descending Minneapolis Center
Fri 08:19:02 PM 48.0575 -97.3786 83° East 174 200 3,700 -387 Descending Minneapolis Center
Fri 08:20:04 PM 48.0606 -97.3125 86° East 168 193 3,200 -532 Descending Minneapolis Center
Fri 08:21:06 PM 48.0583 -97.2500 93° East 160 184 2,600 -629 Descending Minneapolis Center
Fri 08:22:08 PM 48.0306 -97.2219 146° Southeast 140 161 1,900 -484 Descending Minneapolis Center
Fri 08:23:10 PM 47.9869 -97.1967 159° South 140 161 1,600 -293 Descending Minneapolis Center
Fri 08:24:11 PM 47.9622 -97.1831 160° South 84 97 1,300 -336 Descending Minneapolis Center
Fri 08:25:15 PM 47.9428 -97.1792 172° South 108 124 900 -375 Descending Minneapolis Center

Login

Don't have an account? Register now (free) for customized features, flight alerts, and more!